Terminal Aerodrome Forecast
Issued by NWS Lake Charles, LA

Home | Current Version | Previous Version | Text Only | Print | Product List | Glossary On
Versions: 1 2 3 4 5 6 7 8 9 10 11 12 13 14 15
000
FTUS44 KLCH 232100 AAA
TAFBPT
TAF AMD
KBPT 232155Z 2322/2418 VRB05KT P6SM VCSH SCT035 SCT100
     FM232300 33003KT P6SM FEW050=

USA.gov is the U.S. government's official web portal to all federal, state and local government web resources and services.